Time;durP1;ratioP1;P1;durP2;ratioP2;P2;SDS_P1;SDS_P2;PMS_P1;PMS_P2;Temp;Humidity;BMP_temperature;BMP_pressure;BME280_temperature;BME280_humidity;BME280_pressure;Samples;Min_cycle;Max_cycle;Signal;HPM_P1;HPM_P2
2024/04/24 00:01:14;;;;;;;;;;;19.60;58.10;;;;;;1555673;75;1172;-69
2024/04/24 00:03:19;;;;;;;;;;;19.50;58.00;;;;;;1537571;76;727;-71
2024/04/24 00:05:21;;;;;;;;;;;19.50;58.00;;;;;;1554230;75;1937;-70
2024/04/24 00:07:23;;;;;;;;;;;19.50;58.10;;;;;;1545290;76;693;-70
2024/04/24 00:09:25;;;;;;;;;;;19.60;58.10;;;;;;1557635;75;789;-70
2024/04/24 00:11:27;;;;;;;;;;;19.50;58.10;;;;;;1527001;75;1144;-70
2024/04/24 00:13:29;;;;;;;;;;;19.50;58.10;;;;;;1537340;75;1563;-70
2024/04/24 00:15:31;;;;;;;;;;;19.60;58.10;;;;;;1532890;76;758;-70
2024/04/24 00:17:33;;;;;;;;;;;19.60;58.10;;;;;;1555592;76;669;-69
2024/04/24 00:19:34;;;;;;;;;;;19.60;58.10;;;;;;1542845;75;692;-70
2024/04/24 00:21:36;;;;;;;;;;;19.60;58.10;;;;;;1547922;76;1127;-71
2024/04/24 00:23:38;;;;;;;;;;;19.50;58.20;;;;;;1555880;75;636;-70
2024/04/24 00:25:40;;;;;;;;;;;19.50;58.20;;;;;;1544647;75;1930;-69
2024/04/24 00:27:42;;;;;;;;;;;19.50;58.20;;;;;;1549248;75;1696;-69
2024/04/24 00:29:44;;;;;;;;;;;19.50;58.30;;;;;;1546917;76;808;-70
2024/04/24 00:31:46;;;;;;;;;;;19.60;58.20;;;;;;1543825;76;1096;-69
2024/04/24 00:33:48;;;;;;;;;;;19.60;58.30;;;;;;1552956;76;803;-70
2024/04/24 00:35:49;;;;;;;;;;;19.60;58.30;;;;;;1543588;76;586;-71
2024/04/24 00:37:51;;;;;;;;;;;19.50;58.30;;;;;;1551581;75;798;-71
2024/04/24 00:39:53;;;;;;;;;;;19.60;58.30;;;;;;1544942;75;696;-70
2024/04/24 00:41:55;;;;;;;;;;;19.60;58.30;;;;;;1541284;76;1364;-71
2024/04/24 00:43:57;;;;;;;;;;;19.50;58.30;;;;;;1544118;76;765;-72
2024/04/24 00:45:59;;;;;;;;;;;19.70;58.40;;;;;;1537931;75;1940;-70
2024/04/24 00:48:01;;;;;;;;;;;19.50;58.30;;;;;;1552101;75;788;-70
2024/04/24 00:50:04;;;;;;;;;;;19.60;58.30;;;;;;1552912;76;780;-71
2024/04/24 00:52:05;;;;;;;;;;;19.50;58.30;;;;;;1547991;76;1112;-71
2024/04/24 00:54:07;;;;;;;;;;;19.50;58.30;;;;;;1542422;76;745;-70
2024/04/24 00:56:09;;;;;;;;;;;19.60;58.30;;;;;;1542543;76;1521;-71
2024/04/24 00:58:12;;;;;;;;;;;19.50;58.30;;;;;;1534046;76;676;-70
2024/04/24 01:00:14;;;;;;;;;;;19.60;58.40;;;;;;1547901;76;1199;-70
2024/04/24 01:02:16;;;;;;;;;;;19.60;58.30;;;;;;1552114;75;802;-70
2024/04/24 01:04:18;;;;;;;;;;;19.50;58.30;;;;;;1546806;75;766;-70
2024/04/24 01:06:20;;;;;;;;;;;19.60;58.30;;;;;;1543603;76;1938;-70
2024/04/24 01:08:21;;;;;;;;;;;19.60;58.30;;;;;;1547391;75;716;-70
2024/04/24 01:10:23;;;;;;;;;;;19.50;58.30;;;;;;1541215;76;1541;-70
2024/04/24 01:12:25;;;;;;;;;;;19.50;58.30;;;;;;1538396;76;794;-70
2024/04/24 01:14:27;;;;;;;;;;;19.50;58.30;;;;;;1552591;76;705;-72
2024/04/24 01:16:31;;;;;;;;;;;19.50;58.40;;;;;;1557816;76;768;-70
2024/04/24 01:18:32;;;;;;;;;;;19.60;58.40;;;;;;1548380;76;740;-69
2024/04/24 01:20:34;;;;;;;;;;;19.50;58.40;;;;;;1542067;76;1157;-70
2024/04/24 01:22:46;;;;;;;;;;;19.50;58.30;;;;;;1547599;76;609;-69
2024/04/24 01:24:49;;;;;;;;;;;19.50;58.40;;;;;;1536440;76;1931;-70
2024/04/24 01:26:51;;;;;;;;;;;19.50;58.40;;;;;;1543305;76;1909;-69
2024/04/24 01:28:53;;;;;;;;;;;19.60;58.40;;;;;;1542998;76;764;-70
2024/04/24 01:30:55;;;;;;;;;;;19.60;58.40;;;;;;1540912;75;1108;-70
2024/04/24 01:32:57;;;;;;;;;;;19.60;58.40;;;;;;1554267;75;702;-69
2024/04/24 01:34:59;;;;;;;;;;;19.60;58.40;;;;;;1540098;76;773;-70
2024/04/24 01:37:01;;;;;;;;;;;19.50;58.40;;;;;;1547146;75;739;-72
2024/04/24 01:39:04;;;;;;;;;;;19.60;58.30;;;;;;1550037;75;1453;-70
2024/04/24 01:41:06;;;;;;;;;;;19.50;58.40;;;;;;1545541;76;1152;-70
2024/04/24 01:43:08;;;;;;;;;;;19.60;58.40;;;;;;1548770;76;686;-69
2024/04/24 01:45:09;;;;;;;;;;;19.60;58.40;;;;;;1544587;76;1976;-70
2024/04/24 01:47:11;;;;;;;;;;;19.60;58.40;;;;;;1538693;76;708;-71
2024/04/24 01:49:13;;;;;;;;;;;19.50;58.40;;;;;;1546070;76;745;-70
2024/04/24 01:51:15;;;;;;;;;;;19.50;58.40;;;;;;1527924;76;1188;-72
2024/04/24 01:53:17;;;;;;;;;;;19.50;58.40;;;;;;1532470;76;1864;-70
2024/04/24 01:55:19;;;;;;;;;;;19.60;58.40;;;;;;1549484;76;796;-70
2024/04/24 01:57:21;;;;;;;;;;;19.60;58.40;;;;;;1539166;76;716;-70
2024/04/24 01:59:23;;;;;;;;;;;19.50;58.40;;;;;;1550379;75;613;-70
2024/04/24 02:01:24;;;;;;;;;;;19.50;58.40;;;;;;1552047;75;1176;-72
2024/04/24 02:03:26;;;;;;;;;;;19.60;58.40;;;;;;1546342;76;682;-70
2024/04/24 02:05:28;;;;;;;;;;;19.60;58.40;;;;;;1549369;75;1930;-70
2024/04/24 02:07:30;;;;;;;;;;;19.50;58.30;;;;;;1538083;76;722;-70
2024/04/24 02:09:32;;;;;;;;;;;19.50;58.40;;;;;;1546035;76;626;-68
2024/04/24 02:11:34;;;;;;;;;;;19.60;58.40;;;;;;1539658;76;1147;-71
2024/04/24 02:13:36;;;;;;;;;;;19.50;58.40;;;;;;1541340;76;793;-71
2024/04/24 02:15:37;;;;;;;;;;;19.50;58.40;;;;;;1541450;75;742;-70
2024/04/24 02:17:39;;;;;;;;;;;19.50;58.40;;;;;;1551921;75;804;-70
2024/04/24 02:19:42;;;;;;;;;;;19.50;58.40;;;;;;1526810;76;1566;-71
2024/04/24 02:21:44;;;;;;;;;;;19.50;58.40;;;;;;1533802;76;1124;-73
2024/04/24 02:23:46;;;;;;;;;;;19.50;58.40;;;;;;1542375;76;752;-69
2024/04/24 02:25:48;;;;;;;;;;;19.50;58.40;;;;;;1536426;76;1943;-70
2024/04/24 02:27:50;;;;;;;;;;;19.60;58.40;;;;;;1548057;75;704;-70
2024/04/24 02:29:52;;;;;;;;;;;19.50;58.30;;;;;;1562095;75;807;-70
2024/04/24 02:31:54;;;;;;;;;;;19.50;58.40;;;;;;1551080;75;1129;-68
2024/04/24 02:33:56;;;;;;;;;;;19.50;58.40;;;;;;1543431;76;1377;-69
2024/04/24 02:35:57;;;;;;;;;;;19.60;58.40;;;;;;1554380;76;813;-69
2024/04/24 02:37:59;;;;;;;;;;;19.50;58.40;;;;;;1549065;76;599;-69
2024/04/24 02:40:01;;;;;;;;;;;19.50;58.40;;;;;;1547269;75;690;-70
2024/04/24 02:42:03;;;;;;;;;;;19.50;58.40;;;;;;1538007;75;1127;-68
2024/04/24 02:44:05;;;;;;;;;;;19.50;58.40;;;;;;1547074;75;768;-69
2024/04/24 02:46:07;;;;;;;;;;;19.50;58.40;;;;;;1541916;76;1926;-69
2024/04/24 02:48:09;;;;;;;;;;;19.50;58.40;;;;;;1529225;76;1583;-69
2024/04/24 02:50:11;;;;;;;;;;;19.40;58.40;;;;;;1546359;76;1140;-68
2024/04/24 02:52:12;;;;;;;;;;;19.50;58.50;;;;;;1533178;75;724;-68
2024/04/24 02:54:15;;;;;;;;;;;19.50;58.50;;;;;;1545527;76;643;-70
2024/04/24 02:56:17;;;;;;;;;;;19.50;58.50;;;;;;1551560;75;776;-69
2024/04/24 02:58:19;;;;;;;;;;;19.50;58.50;;;;;;1545686;75;727;-69
2024/04/24 03:00:21;;;;;;;;;;;19.50;58.50;;;;;;1533314;76;1127;-70
2024/04/24 03:02:23;;;;;;;;;;;19.50;58.50;;;;;;1540881;76;1561;-71
2024/04/24 03:04:24;;;;;;;;;;;19.50;58.50;;;;;;1543486;76;750;-68
2024/04/24 03:06:26;;;;;;;;;;;19.50;58.50;;;;;;1547610;76;1940;-71
2024/04/24 03:08:28;;;;;;;;;;;19.90;58.70;;;;;;1536990;76;796;-69
2024/04/24 03:10:30;;;;;;;;;;;19.50;58.50;;;;;;1532294;76;1134;-69
2024/04/24 03:12:32;;;;;;;;;;;19.50;58.50;;;;;;1533601;76;749;-69
2024/04/24 03:14:34;;;;;;;;;;;19.50;58.50;;;;;;1539359;76;673;-70
2024/04/24 03:16:36;;;;;;;;;;;19.50;58.50;;;;;;1532675;76;1564;-70
2024/04/24 03:18:38;;;;;;;;;;;19.50;58.50;;;;;;1550240;76;773;-69
2024/04/24 03:20:39;;;;;;;;;;;19.50;58.50;;;;;;1540279;76;1127;-71
2024/04/24 03:22:41;;;;;;;;;;;19.50;58.50;;;;;;1551985;75;807;-70
2024/04/24 03:24:43;;;;;;;;;;;19.50;58.50;;;;;;1550306;76;702;-69
2024/04/24 03:26:45;;;;;;;;;;;19.50;58.40;;;;;;1546879;76;1946;-69
2024/04/24 03:28:47;;;;;;;;;;;19.50;58.50;;;;;;1541377;75;767;-70
2024/04/24 03:30:49;;;;;;;;;;;19.50;58.40;;;;;;1537716;75;1332;-72
2024/04/24 03:32:51;;;;;;;;;;;19.50;58.40;;;;;;1554619;76;602;-71
2024/04/24 03:34:53;;;;;;;;;;;19.50;58.40;;;;;;1546090;75;784;-70
2024/04/24 03:36:55;;;;;;;;;;;19.50;58.40;;;;;;1549188;75;873;-70
2024/04/24 03:38:56;;;;;;;;;;;19.50;58.30;;;;;;1556006;75;692;-69
2024/04/24 03:40:58;;;;;;;;;;;19.50;58.30;;;;;;1546248;76;1165;-71
2024/04/24 03:43:00;;;;;;;;;;;19.50;58.30;;;;;;1548094;75;726;-69
2024/04/24 03:45:02;;;;;;;;;;;19.40;58.20;;;;;;1544851;75;1351;-70
2024/04/24 03:47:04;;;;;;;;;;;19.50;58.30;;;;;;1544111;76;1920;-72
2024/04/24 03:49:06;;;;;;;;;;;19.50;58.30;;;;;;1540587;76;712;-71
2024/04/24 03:51:08;;;;;;;;;;;19.40;58.10;;;;;;1538184;75;1156;-69
2024/04/24 03:53:10;;;;;;;;;;;19.50;58.30;;;;;;1542327;75;704;-70
2024/04/24 03:55:11;;;;;;;;;;;19.50;58.20;;;;;;1554463;75;742;-70
2024/04/24 03:57:13;;;;;;;;;;;19.50;58.20;;;;;;1543451;76;710;-71
2024/04/24 03:59:15;;;;;;;;;;;19.70;58.30;;;;;;1536976;76;1544;-70
2024/04/24 04:01:17;;;;;;;;;;;19.50;58.20;;;;;;1536191;76;1200;-70
2024/04/24 04:03:19;;;;;;;;;;;19.50;58.20;;;;;;1534649;76;769;-69
2024/04/24 04:05:21;;;;;;;;;;;19.40;58.10;;;;;;1553587;75;723;-68
2024/04/24 04:07:23;;;;;;;;;;;19.50;58.30;;;;;;1543507;76;1944;-68
2024/04/24 04:09:25;;;;;;;;;;;19.50;58.40;;;;;;1540579;76;681;-69
2024/04/24 04:11:27;;;;;;;;;;;19.50;58.30;;;;;;1537504;76;1165;-70
2024/04/24 04:13:28;;;;;;;;;;;19.50;58.30;;;;;;1539853;76;1559;-69
2024/04/24 04:15:30;;;;;;;;;;;19.50;58.20;;;;;;1541586;76;714;-69
2024/04/24 04:17:32;;;;;;;;;;;19.50;58.20;;;;;;1533620;75;749;-71
2024/04/24 04:19:34;;;;;;;;;;;19.50;58.10;;;;;;1534182;76;709;-69
2024/04/24 04:21:36;;;;;;;;;;;19.50;58.20;;;;;;1538250;75;1134;-70
2024/04/24 04:23:38;;;;;;;;;;;19.60;58.20;;;;;;1544013;75;710;-70
2024/04/24 04:25:40;;;;;;;;;;;19.50;58.30;;;;;;1558673;75;763;-69
2024/04/24 04:27:41;;;;;;;;;;;19.40;58.20;;;;;;1549658;76;1943;-69
2024/04/24 04:29:43;;;;;;;;;;;19.50;58.30;;;;;;1555743;75;778;-71
2024/04/24 04:31:45;;;;;;;;;;;19.60;58.40;;;;;;1551121;75;1091;-69
2024/04/24 04:33:47;;;;;;;;;;;19.50;58.40;;;;;;1550980;76;757;-71
2024/04/24 04:35:49;;;;;;;;;;;19.50;58.50;;;;;;1539704;76;660;-67
2024/04/24 04:37:51;;;;;;;;;;;19.60;58.50;;;;;;1551069;75;771;-67
2024/04/24 04:39:53;;;;;;;;;;;19.50;58.60;;;;;;1534511;75;779;-69
2024/04/24 04:41:55;;;;;;;;;;;19.50;58.70;;;;;;1539974;76;1666;-69
2024/04/24 04:43:56;;;;;;;;;;;19.50;58.70;;;;;;1546606;75;732;-69
2024/04/24 04:45:58;;;;;;;;;;;19.50;58.70;;;;;;1558538;75;706;-72
2024/04/24 04:48:00;;;;;;;;;;;19.50;58.70;;;;;;1543012;75;776;-69
2024/04/24 04:50:02;;;;;;;;;;;19.50;58.80;;;;;;1537321;76;656;-71
2024/04/24 04:52:04;;;;;;;;;;;19.50;58.80;;;;;;1541784;76;1128;-68
2024/04/24 04:54:06;;;;;;;;;;;19.50;59.20;;;;;;1541819;75;675;-68
2024/04/24 04:56:08;;;;;;;;;;;19.60;59.10;;;;;;1540687;76;832;-69
2024/04/24 04:58:10;;;;;;;;;;;19.50;59.00;;;;;;1542426;75;756;-69
2024/04/24 05:00:13;;;;;;;;;;;19.50;59.00;;;;;;1545500;75;781;-69
2024/04/24 05:02:15;;;;;;;;;;;19.50;59.00;;;;;;1545271;76;691;-69
2024/04/24 05:04:17;;;;;;;;;;;19.50;59.00;;;;;;1537231;76;768;-69
2024/04/24 05:06:18;;;;;;;;;;;19.60;58.90;;;;;;1540317;76;1920;-68
2024/04/24 05:08:20;;;;;;;;;;;19.50;59.00;;;;;;1555295;76;1562;-68
2024/04/24 05:10:22;;;;;;;;;;;19.60;59.00;;;;;;1530315;76;1154;-68
2024/04/24 05:12:24;;;;;;;;;;;19.50;59.00;;;;;;1537587;76;663;-69
2024/04/24 05:14:26;;;;;;;;;;;19.50;59.00;;;;;;1535327;76;680;-70
2024/04/24 05:16:28;;;;;;;;;;;19.50;59.00;;;;;;1536606;76;682;-68
2024/04/24 05:18:30;;;;;;;;;;;19.50;59.00;;;;;;1540164;76;721;-69
2024/04/24 05:20:31;;;;;;;;;;;19.50;59.00;;;;;;1531000;76;1143;-67
2024/04/24 05:22:46;;;;;;;;;;;19.60;59.00;;;;;;1542558;75;1530;-68
2024/04/24 05:24:37;;;;;;;;;;;19.50;59.00;;;;;;1540229;75;1560;-71
2024/04/24 05:29:04;;;;;;;;;;;19.60;59.00;;;;;;1536555;76;1802;-69
2024/04/24 05:31:06;;;;;;;;;;;19.50;59.00;;;;;;1538474;76;1108;-67
2024/04/24 05:33:08;;;;;;;;;;;19.50;59.00;;;;;;1546607;76;662;-69
2024/04/24 05:35:10;;;;;;;;;;;19.50;59.00;;;;;;1543971;76;774;-70
2024/04/24 05:37:12;;;;;;;;;;;19.50;59.00;;;;;;1539540;76;1547;-70
2024/04/24 05:39:14;;;;;;;;;;;19.50;58.90;;;;;;1552504;76;803;-68
2024/04/24 05:41:16;;;;;;;;;;;19.50;58.90;;;;;;1550667;75;1138;-72
2024/04/24 05:43:17;;;;;;;;;;;19.50;59.00;;;;;;1536711;76;716;-68
2024/04/24 05:45:19;;;;;;;;;;;20.00;59.10;;;;;;1552619;75;726;-67
2024/04/24 05:47:21;;;;;;;;;;;19.50;58.90;;;;;;1539061;76;1942;-68
2024/04/24 05:49:23;;;;;;;;;;;19.50;58.90;;;;;;1553836;76;717;-71
2024/04/24 05:51:25;;;;;;;;;;;19.60;58.90;;;;;;1546137;76;1650;-70
2024/04/24 05:53:27;;;;;;;;;;;19.50;58.90;;;;;;1549389;76;685;-67
2024/04/24 05:55:29;;;;;;;;;;;19.60;58.90;;;;;;1542815;76;911;-68
2024/04/24 05:57:31;;;;;;;;;;;19.50;58.80;;;;;;1547239;76;745;-68
2024/04/24 05:59:32;;;;;;;;;;;19.60;58.80;;;;;;1537447;76;756;-68
2024/04/24 06:01:34;;;;;;;;;;;19.50;58.80;;;;;;1546873;75;1174;-68
2024/04/24 06:03:36;;;;;;;;;;;19.50;58.70;;;;;;1546538;76;713;-69
2024/04/24 06:05:38;;;;;;;;;;;19.50;58.80;;;;;;1542053;76;1538;-68
2024/04/24 06:07:41;;;;;;;;;;;19.50;58.70;;;;;;1549635;76;1932;-69
2024/04/24 06:09:44;;;;;;;;;;;19.50;58.70;;;;;;1545321;75;784;-69
2024/04/24 06:11:46;;;;;;;;;;;19.60;58.70;;;;;;1540629;75;1119;-67
2024/04/24 06:13:48;;;;;;;;;;;19.60;58.70;;;;;;1536541;76;751;-68
2024/04/24 06:15:50;;;;;;;;;;;19.60;58.70;;;;;;1540638;76;680;-68
2024/04/24 06:17:51;;;;;;;;;;;19.50;58.70;;;;;;1549477;76;685;-67
2024/04/24 06:19:54;;;;;;;;;;;19.60;58.70;;;;;;1540562;76;1348;-68
2024/04/24 06:21:56;;;;;;;;;;;19.50;58.70;;;;;;1561249;76;1121;-69
2024/04/24 06:23:58;;;;;;;;;;;19.60;58.60;;;;;;1554793;75;795;-69
2024/04/24 06:26:00;;;;;;;;;;;19.50;58.60;;;;;;1554260;75;707;-69
2024/04/24 06:28:02;;;;;;;;;;;19.60;58.60;;;;;;1552719;76;1946;-69
2024/04/24 06:30:04;;;;;;;;;;;19.50;58.60;;;;;;1542733;76;568;-69
2024/04/24 06:32:06;;;;;;;;;;;19.40;58.50;;;;;;1542842;76;1127;-68
2024/04/24 06:34:08;;;;;;;;;;;19.50;58.60;;;;;;1535324;76;1599;-69
2024/04/24 06:36:10;;;;;;;;;;;19.50;58.60;;;;;;1550928;75;743;-68
2024/04/24 06:38:12;;;;;;;;;;;19.50;58.60;;;;;;1550198;75;793;-70
2024/04/24 06:40:14;;;;;;;;;;;19.60;58.60;;;;;;1561056;76;1120;-67
2024/04/24 06:42:16;;;;;;;;;;;19.50;58.50;;;;;;1541887;76;725;-71
2024/04/24 06:44:18;;;;;;;;;;;19.50;58.50;;;;;;1552867;75;690;-68
2024/04/24 06:46:20;;;;;;;;;;;19.50;58.50;;;;;;1545556;75;791;-68
2024/04/24 06:48:21;;;;;;;;;;;19.60;58.50;;;;;;1535115;76;1950;-68
2024/04/24 06:50:23;;;;;;;;;;;19.50;58.50;;;;;;1552773;76;1106;-68
2024/04/24 06:52:25;;;;;;;;;;;19.50;58.50;;;;;;1547237;75;556;-69
2024/04/24 06:54:27;;;;;;;;;;;19.50;58.50;;;;;;1546416;76;682;-68
2024/04/24 06:56:29;;;;;;;;;;;19.50;58.50;;;;;;1552125;76;727;-72
2024/04/24 06:58:34;;;;;;;;;;;19.50;58.50;;;;;;1537614;76;795;-68
2024/04/24 07:00:36;;;;;;;;;;;19.50;58.50;;;;;;1543048;75;1088;-70
2024/04/24 07:02:38;;;;;;;;;;;19.60;58.50;;;;;;1550867;76;1588;-68
2024/04/24 07:04:40;;;;;;;;;;;19.50;58.50;;;;;;1553592;76;727;-69
2024/04/24 07:06:41;;;;;;;;;;;19.50;58.40;;;;;;1548148;76;758;-69
2024/04/24 07:08:43;;;;;;;;;;;19.50;58.40;;;;;;1550691;75;1923;-69
2024/04/24 07:10:45;;;;;;;;;;;19.50;58.40;;;;;;1539075;76;1143;-70
2024/04/24 07:12:47;;;;;;;;;;;19.50;58.40;;;;;;1539851;76;684;-69
2024/04/24 07:14:49;;;;;;;;;;;19.60;58.40;;;;;;1551097;75;1575;-69
2024/04/24 07:16:51;;;;;;;;;;;19.50;58.40;;;;;;1534652;76;737;-69
2024/04/24 07:18:53;;;;;;;;;;;19.50;58.40;;;;;;1537942;76;654;-68
2024/04/24 07:20:55;;;;;;;;;;;19.50;58.30;;;;;;1535161;76;1150;-67
2024/04/24 07:22:57;;;;;;;;;;;19.40;58.20;;;;;;1542513;76;763;-69
2024/04/24 07:24:59;;;;;;;;;;;19.50;58.30;;;;;;1548797;75;771;-68
2024/04/24 07:27:01;;;;;;;;;;;19.50;58.30;;;;;;1533935;76;1934;-68
2024/04/24 07:29:03;;;;;;;;;;;19.60;58.20;;;;;;1538265;76;1570;-70
2024/04/24 07:31:05;;;;;;;;;;;19.60;58.20;;;;;;1540059;76;1120;-68
2024/04/24 07:33:07;;;;;;;;;;;19.50;58.20;;;;;;1553503;75;759;-69
2024/04/24 07:35:09;;;;;;;;;;;19.60;58.20;;;;;;1541215;75;773;-69
2024/04/24 07:37:10;;;;;;;;;;;19.50;58.20;;;;;;1550443;76;686;-69
2024/04/24 07:39:12;;;;;;;;;;;19.50;58.20;;;;;;1539490;76;809;-70
2024/04/24 07:41:15;;;;;;;;;;;19.90;58.30;;;;;;1544413;76;1149;-68
2024/04/24 07:43:17;;;;;;;;;;;19.60;58.20;;;;;;1548278;75;1221;-69
2024/04/24 07:45:19;;;;;;;;;;;19.60;58.10;;;;;;1552830;76;769;-68
2024/04/24 07:47:21;;;;;;;;;;;19.50;58.10;;;;;;1559523;76;1928;-69
2024/04/24 07:49:22;;;;;;;;;;;19.50;58.10;;;;;;1554917;75;697;-70
2024/04/24 07:51:24;;;;;;;;;;;19.60;58.10;;;;;;1540539;75;1155;-68
2024/04/24 07:53:26;;;;;;;;;;;19.50;58.10;;;;;;1552860;76;814;-68
2024/04/24 07:55:28;;;;;;;;;;;19.50;58.00;;;;;;1542376;76;720;-67
2024/04/24 07:57:30;;;;;;;;;;;19.60;58.00;;;;;;1539808;76;1581;-69
2024/04/24 07:59:32;;;;;;;;;;;19.50;58.10;;;;;;1549149;76;761;-71
2024/04/24 08:01:34;;;;;;;;;;;19.60;58.00;;;;;;1537602;76;1135;-70
2024/04/24 08:03:36;;;;;;;;;;;19.50;58.00;;;;;;1538608;76;677;-68
2024/04/24 08:05:38;;;;;;;;;;;19.50;58.00;;;;;;1544622;76;652;-69
2024/04/24 08:07:39;;;;;;;;;;;19.50;58.00;;;;;;1545799;76;1934;-69
2024/04/24 08:09:41;;;;;;;;;;;19.60;58.00;;;;;;1546112;75;644;-70
2024/04/24 08:11:43;;;;;;;;;;;19.50;58.00;;;;;;1539093;76;1593;-69
2024/04/24 08:13:45;;;;;;;;;;;19.60;58.00;;;;;;1552920;76;652;-70
2024/04/24 08:15:47;;;;;;;;;;;19.60;58.00;;;;;;1545283;76;696;-67
2024/04/24 08:17:49;;;;;;;;;;;19.60;58.00;;;;;;1546457;75;752;-69
2024/04/24 08:19:51;;;;;;;;;;;19.50;58.00;;;;;;1524700;76;666;-69
2024/04/24 08:21:53;;;;;;;;;;;19.60;58.00;;;;;;1536202;76;1142;-68
2024/04/24 08:23:55;;;;;;;;;;;19.60;58.00;;;;;;1545431;76;795;-69
2024/04/24 08:25:56;;;;;;;;;;;19.50;58.00;;;;;;1555768;76;1450;-69
2024/04/24 08:27:58;;;;;;;;;;;19.60;58.00;;;;;;1553657;76;1951;-70
2024/04/24 08:30:00;;;;;;;;;;;19.60;57.90;;;;;;1536395;75;693;-71
2024/04/24 08:32:02;;;;;;;;;;;19.90;58.10;;;;;;1544398;75;1123;-68
2024/04/24 08:34:04;;;;;;;;;;;19.60;57.90;;;;;;1547887;76;668;-69
2024/04/24 08:36:09;;;;;;;;;;;19.60;57.90;;;;;;1554082;76;686;-69
2024/04/24 08:38:10;;;;;;;;;;;19.60;57.90;;;;;;1542883;76;1628;-68
2024/04/24 08:40:12;;;;;;;;;;;19.60;57.80;;;;;;1526171;76;1351;-69
2024/04/24 08:42:14;;;;;;;;;;;19.60;57.80;;;;;;1546403;76;754;-68
2024/04/24 08:44:16;;;;;;;;;;;19.60;57.90;;;;;;1548462;76;762;-72
2024/04/24 08:46:18;;;;;;;;;;;19.20;57.60;;;;;;1540219;76;764;-70
2024/04/24 08:48:20;;;;;;;;;;;19.60;57.80;;;;;;1553180;76;1950;-68
2024/04/24 08:50:22;;;;;;;;;;;19.60;57.80;;;;;;1535557;76;1120;-68
2024/04/24 08:52:24;;;;;;;;;;;19.70;57.80;;;;;;1540550;76;811;-69
2024/04/24 08:54:25;;;;;;;;;;;19.70;57.80;;;;;;1535751;75;1323;-69
2024/04/24 08:56:29;;;;;;;;;;;19.70;57.80;;;;;;1538147;76;682;-69
2024/04/24 08:58:32;;;;;;;;;;;19.60;57.60;;;;;;1548755;76;737;-68
2024/04/24 09:00:35;;;;;;;;;;;19.60;57.60;;;;;;1552165;75;1111;-69
2024/04/24 09:02:38;;;;;;;;;;;19.60;57.60;;;;;;1557704;75;597;-69
2024/04/24 09:04:41;;;;;;;;;;;19.60;57.60;;;;;;1542958;76;642;-69
2024/04/24 09:06:43;;;;;;;;;;;19.60;57.50;;;;;;1534497;76;656;-69
2024/04/24 09:08:45;;;;;;;;;;;19.60;57.60;;;;;;1536116;76;1951;-68
2024/04/24 09:10:46;;;;;;;;;;;19.60;57.60;;;;;;1545866;76;1162;-68
2024/04/24 09:12:48;;;;;;;;;;;19.60;57.60;;;;;;1556993;76;764;-68
2024/04/24 09:14:50;;;;;;;;;;;19.60;57.50;;;;;;1547205;75;689;-68
2024/04/24 09:16:52;;;;;;;;;;;19.70;57.60;;;;;;1549150;75;743;-70
2024/04/24 09:19:03;;;;;;;;;;;19.60;56.90;;;;;;1536279;76;736;-72
2024/04/24 09:21:05;;;;;;;;;;;19.60;56.90;;;;;;1539177;75;1154;-68
2024/04/24 09:23:10;;;;;;;;;;;19.60;56.90;;;;;;1533772;76;1340;-68
2024/04/24 09:25:11;;;;;;;;;;;19.60;56.90;;;;;;1556707;76;1637;-70
2024/04/24 09:27:14;;;;;;;;;;;19.60;56.80;;;;;;1544399;76;687;-71
2024/04/24 09:29:16;;;;;;;;;;;19.60;56.90;;;;;;1547010;75;1945;-71
2024/04/24 09:31:18;;;;;;;;;;;19.60;56.80;;;;;;1549952;75;1142;-67
2024/04/24 09:33:20;;;;;;;;;;;19.60;56.80;;;;;;1540693;76;707;-69
2024/04/24 09:35:22;;;;;;;;;;;19.60;56.80;;;;;;1553525;75;751;-68
2024/04/24 09:37:24;;;;;;;;;;;19.50;56.80;;;;;;1534409;76;696;-67
2024/04/24 09:39:26;;;;;;;;;;;19.50;56.80;;;;;;1534898;76;789;-68
2024/04/24 09:41:28;;;;;;;;;;;19.60;56.70;;;;;;1546555;76;1152;-68
2024/04/24 09:43:30;;;;;;;;;;;19.50;56.70;;;;;;1547369;76;680;-70
2024/04/24 09:45:32;;;;;;;;;;;19.60;56.70;;;;;;1512656;77;859;-69
2024/04/24 09:47:34;;;;;;;;;;;19.50;56.70;;;;;;1536368;76;675;-69
2024/04/24 09:49:38;;;;;;;;;;;19.50;56.70;;;;;;1549306;76;1940;-68
2024/04/24 09:51:41;;;;;;;;;;;19.60;56.70;;;;;;1543904;76;1127;-69
2024/04/24 09:53:43;;;;;;;;;;;19.60;56.70;;;;;;1549962;75;659;-68
2024/04/24 09:56:03;;;;;;;;;;;19.50;56.70;;;;;;1539206;76;759;-70
2024/04/24 09:58:02;;;;;;;;;;;19.60;56.70;;;;;;1540148;76;1217;-68
2024/04/24 10:00:08;;;;;;;;;;;19.60;56.70;;;;;;1545655;76;760;-69
2024/04/24 10:02:10;;;;;;;;;;;19.50;56.60;;;;;;1537090;76;1184;-67
2024/04/24 10:04:12;;;;;;;;;;;19.60;56.60;;;;;;1544291;76;1575;-70
2024/04/24 10:06:15;;;;;;;;;;;19.60;56.60;;;;;;1539287;76;680;-70
2024/04/24 10:08:18;;;;;;;;;;;19.60;56.60;;;;;;1540853;76;1946;-68
2024/04/24 10:10:21;;;;;;;;;;;19.60;56.60;;;;;;1545077;76;1182;-69
2024/04/24 10:12:24;;;;;;;;;;;19.60;56.60;;;;;;1546051;76;740;-68
2024/04/24 10:14:26;;;;;;;;;;;19.60;56.60;;;;;;1541447;76;1908;-70
2024/04/24 10:16:28;;;;;;;;;;;19.60;56.50;;;;;;1536746;76;730;-71
2024/04/24 10:18:31;;;;;;;;;;;19.60;56.60;;;;;;1537864;75;1345;-68
2024/04/24 10:20:33;;;;;;;;;;;19.60;56.50;;;;;;1528946;76;1126;-70
2024/04/24 10:22:35;;;;;;;;;;;19.60;56.50;;;;;;1546306;76;669;-68
2024/04/24 10:24:37;;;;;;;;;;;19.60;56.50;;;;;;1551994;75;691;-69
2024/04/24 10:26:39;;;;;;;;;;;19.60;56.50;;;;;;1536552;76;768;-71
2024/04/24 10:28:41;;;;;;;;;;;19.60;56.50;;;;;;1542132;76;1902;-70
2024/04/24 10:30:43;;;;;;;;;;;19.50;56.50;;;;;;1536339;76;1144;-69
2024/04/24 10:32:45;;;;;;;;;;;19.60;56.50;;;;;;1536394;76;1601;-69
2024/04/24 10:34:47;;;;;;;;;;;19.60;56.50;;;;;;1541795;75;745;-69
2024/04/24 10:36:49;;;;;;;;;;;19.60;56.50;;;;;;1540340;76;748;-68
2024/04/24 10:38:54;;;;;;;;;;;19.60;56.40;;;;;;1536923;76;815;-69
2024/04/24 10:40:56;;;;;;;;;;;19.60;56.40;;;;;;1546052;76;1142;-70
2024/04/24 10:43:11;;;;;;;;;;;19.90;56.60;;;;;;1543745;76;565;-68
2024/04/24 10:45:12;;;;;;;;;;;19.60;56.40;;;;;;1545092;76;1212;-71
2024/04/24 10:47:17;;;;;;;;;;;19.60;56.40;;;;;;1537165;76;1599;-69
2024/04/24 10:49:18;;;;;;;;;;;19.60;56.40;;;;;;1536887;76;1922;-71
2024/04/24 10:51:31;;;;;;;;;;;19.60;56.40;;;;;;1540731;76;1179;-68
2024/04/24 10:53:33;;;;;;;;;;;19.70;56.50;;;;;;1540767;75;1773;-70
2024/04/24 10:55:35;;;;;;;;;;;19.60;56.30;;;;;;1507988;77;959;-68
2024/04/24 10:57:36;;;;;;;;;;;19.70;56.50;;;;;;1534697;75;677;-67
2024/04/24 10:59:38;;;;;;;;;;;19.60;56.30;;;;;;1544914;75;811;-68
2024/04/24 11:01:45;;;;;;;;;;;19.60;56.30;;;;;;1540216;76;1575;-69
2024/04/24 11:03:44;;;;;;;;;;;19.60;56.30;;;;;;1548453;76;1560;-68
2024/04/24 11:05:46;;;;;;;;;;;19.60;56.30;;;;;;1534876;76;715;-68
2024/04/24 11:08:04;;;;;;;;;;;19.60;56.20;;;;;;1551710;76;750;-69
2024/04/24 11:10:06;;;;;;;;;;;19.60;56.20;;;;;;1532898;75;1924;-69
2024/04/24 11:12:09;;;;;;;;;;;19.60;56.20;;;;;;1543076;76;1142;-70
2024/04/24 11:14:11;;;;;;;;;;;19.60;56.20;;;;;;1542747;76;1356;-69
2024/04/24 11:16:13;;;;;;;;;;;19.60;56.20;;;;;;1538700;76;719;-69
2024/04/24 11:18:15;;;;;;;;;;;19.70;56.30;;;;;;1538132;76;801;-69
2024/04/24 11:20:21;;;;;;;;;;;19.50;56.20;;;;;;1541615;75;1160;-68
2024/04/24 11:22:27;;;;;;;;;;;19.60;56.20;;;;;;1539157;76;1192;-67
2024/04/24 11:24:29;;;;;;;;;;;19.60;56.20;;;;;;1558370;75;726;-66
2024/04/24 11:26:31;;;;;;;;;;;19.60;56.20;;;;;;1534709;76;690;-71
2024/04/24 11:28:34;;;;;;;;;;;19.60;56.10;;;;;;1541097;76;1918;-70
2024/04/24 11:30:36;;;;;;;;;;;19.60;56.10;;;;;;1536902;76;1140;-69
2024/04/24 11:32:38;;;;;;;;;;;19.60;56.10;;;;;;1562417;75;698;-70
2024/04/24 11:34:40;;;;;;;;;;;19.60;56.10;;;;;;1553892;75;682;-69
2024/04/24 11:36:42;;;;;;;;;;;19.60;56.10;;;;;;1555980;75;822;-68
2024/04/24 11:38:44;;;;;;;;;;;19.60;56.10;;;;;;1535795;75;749;-69
2024/04/24 11:40:45;;;;;;;;;;;19.60;56.10;;;;;;1552817;75;1148;-68
2024/04/24 11:42:48;;;;;;;;;;;19.60;56.00;;;;;;1550811;76;1338;-69
2024/04/24 11:44:50;;;;;;;;;;;19.70;56.20;;;;;;1555811;76;806;-68
2024/04/24 11:46:52;;;;;;;;;;;19.70;56.10;;;;;;1552143;76;756;-69
2024/04/24 11:48:54;;;;;;;;;;;19.60;56.00;;;;;;1548218;76;1935;-68
2024/04/24 11:50:56;;;;;;;;;;;19.60;56.00;;;;;;1539209;76;1088;-67
2024/04/24 11:53:03;;;;;;;;;;;19.60;56.00;;;;;;1540645;76;723;-68
2024/04/24 11:55:02;;;;;;;;;;;19.60;56.00;;;;;;1549566;76;1445;-68
2024/04/24 11:57:03;;;;;;;;;;;19.60;56.00;;;;;;1534079;76;1547;-68
2024/04/24 11:59:06;;;;;;;;;;;19.60;55.90;;;;;;1542039;76;731;-70
2024/04/24 12:01:08;;;;;;;;;;;19.60;55.90;;;;;;1557080;75;1151;-70
2024/04/24 12:03:10;;;;;;;;;;;19.60;55.90;;;;;;1535929;76;695;-69
2024/04/24 12:05:12;;;;;;;;;;;19.60;56.00;;;;;;1544264;75;712;-69
2024/04/24 12:07:14;;;;;;;;;;;19.60;55.90;;;;;;1553477;75;702;-70
2024/04/24 12:09:16;;;;;;;;;;;19.60;55.90;;;;;;1553150;76;1930;-69
2024/04/24 12:11:18;;;;;;;;;;;19.60;55.90;;;;;;1533828;76;1557;-69